OCN75 CYHZ-EDDF
Flight info
| Callsign | OCN75 |
|---|---|
| Flight time | N/A |
| Altitude | 39000 |
| Route | IGTAS DCT NOTOP DCT PORTI/M082F390 DCT 47N050W 49N040W 51N030W 53N020W DCT MALOT DCT GISTI/N0463F390 DCT LONDU DCT WTD DCT ENJEX DCT ADHAV DCT AXNEF DCT ZIPWE DCT OZZIL DCT SAWPE Q63 CPT UL9 BIG L607 KONAN UL607 SPI T180 NIVNU T847 IMCOM IMCOM2C |
| Aircraft | A332/H-SDE3GHIJ2J3J5M1RVWXY/LB2D1 |
Departure
| Time | 2026-04-29 06:32 |
|---|---|
| Airport | Halifax / Stanfield International Airport (CYHZ) |
Arrival
| Time | N/A |
|---|---|
| Airport | Frankfurt Main Airport (EDDF) |
| Time | Latitude | Longitude | Altitude | Speed | Heading |
|---|---|---|---|---|---|
| 2026-04-29 06:05 | 44.88894 | -63.51459 | 456 ft | 0 kts | 213° |
| 2026-04-29 06:21 | 44.88908 | -63.51446 | 462 ft | 4 kts | 213° |
| 2026-04-29 06:21 | 44.88930 | -63.51425 | 453 ft | 4 kts | 207° |
| 2026-04-29 06:21 | 44.88952 | -63.51418 | 454 ft | 4 kts | 152° |
| 2026-04-29 06:21 | 44.88970 | -63.51441 | 453 ft | 2 kts | 124° |
| 2026-04-29 06:22 | 44.88973 | -63.51448 | 453 ft | 0 kts | 124° |
| 2026-04-29 06:24 | 44.88973 | -63.51447 | 456 ft | 0 kts | 124° |
| 2026-04-29 06:25 | 44.88961 | -63.51422 | 456 ft | 6 kts | 124° |
| 2026-04-29 06:25 | 44.88924 | -63.51345 | 456 ft | 13 kts | 125° |
| 2026-04-29 06:25 | 44.88825 | -63.51292 | 456 ft | 17 kts | 169° |
| 2026-04-29 06:26 | 44.88708 | -63.51263 | 456 ft | 17 kts | 170° |
| 2026-04-29 06:26 | 44.88594 | -63.51235 | 456 ft | 17 kts | 169° |
| 2026-04-29 06:26 | 44.88481 | -63.51206 | 456 ft | 16 kts | 169° |
| 2026-04-29 06:26 | 44.88379 | -63.51258 | 456 ft | 16 kts | 214° |
| 2026-04-29 06:27 | 44.88282 | -63.51353 | 456 ft | 17 kts | 216° |
| 2026-04-29 06:27 | 44.88182 | -63.51453 | 457 ft | 18 kts | 215° |
| 2026-04-29 06:27 | 44.88081 | -63.51552 | 456 ft | 18 kts | 214° |
| 2026-04-29 06:27 | 44.87982 | -63.51651 | 464 ft | 16 kts | 216° |
| 2026-04-29 06:28 | 44.87895 | -63.51739 | 467 ft | 16 kts | 215° |
| 2026-04-29 06:28 | 44.87791 | -63.51841 | 468 ft | 21 kts | 215° |
| 2026-04-29 06:28 | 44.87664 | -63.51966 | 471 ft | 24 kts | 215° |
| 2026-04-29 06:28 | 44.87518 | -63.52110 | 467 ft | 27 kts | 215° |
| 2026-04-29 06:29 | 44.87369 | -63.52256 | 473 ft | 25 kts | 215° |
| 2026-04-29 06:29 | 44.87226 | -63.52399 | 468 ft | 26 kts | 214° |
| 2026-04-29 06:29 | 44.87062 | -63.52561 | 466 ft | 30 kts | 214° |
| 2026-04-29 06:29 | 44.86911 | -63.52710 | 463 ft | 26 kts | 215° |
| 2026-04-29 06:30 | 44.86782 | -63.52888 | 459 ft | 25 kts | 227° |
| 2026-04-29 06:30 | 44.86618 | -63.52807 | 453 ft | 18 kts | 126° |
| 2026-04-29 06:30 | 44.86605 | -63.52694 | 453 ft | 10 kts | 53° |
| 2026-04-29 06:31 | 44.86666 | -63.52624 | 453 ft | 21 kts | 35° |
| 2026-04-29 06:31 | 44.86950 | -63.52344 | 462 ft | 77 kts | 35° |
| 2026-04-29 06:31 | 44.87535 | -63.51767 | 469 ft | 127 kts | 35° |
| 2026-04-29 06:31 | 44.88381 | -63.50950 | 544 ft | 160 kts | 38° |
| 2026-04-29 06:32 | 44.89316 | -63.50045 | 918 ft | 175 kts | 42° |
| 2026-04-29 06:32 | 44.90124 | -63.48733 | 1458 ft | 175 kts | 57° |
| 2026-04-29 06:32 | 44.90750 | -63.47313 | 2391 ft | 163 kts | 65° |
| 2026-04-29 06:32 | 44.91290 | -63.45897 | 2858 ft | 170 kts | 69° |
| 2026-04-29 06:33 | 44.91828 | -63.44295 | 3057 ft | 191 kts | 70° |
| 2026-04-29 06:33 | 44.92395 | -63.42491 | 3254 ft | 212 kts | 70° |
| 2026-04-29 06:33 | 44.93016 | -63.40481 | 3427 ft | 235 kts | 70° |
| 2026-04-29 06:33 | 44.93701 | -63.38291 | 3789 ft | 251 kts | 70° |
| 2026-04-29 06:34 | 44.94425 | -63.36017 | 4479 ft | 256 kts | 69° |
| 2026-04-29 06:34 | 44.95170 | -63.33711 | 5225 ft | 260 kts | 69° |
| 2026-04-29 06:34 | 44.95927 | -63.31371 | 5989 ft | 263 kts | 69° |
| 2026-04-29 06:34 | 44.96689 | -63.29021 | 6853 ft | 263 kts | 69° |
| 2026-04-29 06:35 | 44.97452 | -63.26660 | 7615 ft | 266 kts | 68° |
| 2026-04-29 06:35 | 44.98224 | -63.24261 | 8365 ft | 270 kts | 69° |
| 2026-04-29 06:35 | 44.99003 | -63.21830 | 9113 ft | 275 kts | 69° |
| 2026-04-29 06:35 | 44.99798 | -63.19346 | 9818 ft | 280 kts | 69° |
| 2026-04-29 06:36 | 45.00607 | -63.16805 | 10441 ft | 289 kts | 66° |
| 2026-04-29 06:36 | 45.01460 | -63.14132 | 10709 ft | 309 kts | 68° |
| 2026-04-29 06:36 | 45.02369 | -63.11278 | 10958 ft | 328 kts | 68° |
| 2026-04-29 06:36 | 45.03331 | -63.08255 | 11202 ft | 346 kts | 67° |
| 2026-04-29 06:37 | 45.04340 | -63.05085 | 11537 ft | 359 kts | 68° |
| 2026-04-29 06:37 | 45.05377 | -63.01831 | 12092 ft | 365 kts | 68° |
| 2026-04-29 06:37 | 45.06426 | -62.98539 | 12685 ft | 369 kts | 68° |
| 2026-04-29 06:37 | 45.07537 | -62.95250 | 13319 ft | 373 kts | 64° |
| 2026-04-29 06:38 | 45.08775 | -62.92002 | 13948 ft | 377 kts | 63° |
| 2026-04-29 06:38 | 45.10064 | -62.88744 | 14471 ft | 381 kts | 62° |
| 2026-04-29 06:38 | 45.11389 | -62.85474 | 15002 ft | 385 kts | 62° |
| 2026-04-29 06:38 | 45.12733 | -62.82188 | 15534 ft | 388 kts | 62° |
| 2026-04-29 06:39 | 45.14094 | -62.78871 | 16077 ft | 391 kts | 62° |
| 2026-04-29 06:39 | 45.15464 | -62.75526 | 16602 ft | 394 kts | 61° |
| 2026-04-29 06:39 | 45.16840 | -62.72153 | 17126 ft | 397 kts | 62° |
| 2026-04-29 06:39 | 45.18226 | -62.68746 | 17644 ft | 400 kts | 62° |
| 2026-04-29 06:40 | 45.19620 | -62.65311 | 18163 ft | 404 kts | 61° |
| 2026-04-29 06:40 | 45.21024 | -62.61842 | 18632 ft | 408 kts | 61° |
| 2026-04-29 06:40 | 45.22438 | -62.58338 | 19052 ft | 411 kts | 61° |
| 2026-04-29 06:40 | 45.23862 | -62.54806 | 19468 ft | 414 kts | 61° |
| 2026-04-29 06:41 | 45.25297 | -62.51244 | 19916 ft | 416 kts | 62° |
| 2026-04-29 06:41 | 45.26738 | -62.47665 | 20355 ft | 419 kts | 61° |
| 2026-04-29 06:41 | 45.28186 | -62.44062 | 20758 ft | 422 kts | 61° |
| 2026-04-29 06:41 | 45.29645 | -62.40423 | 21173 ft | 425 kts | 61° |
| 2026-04-29 06:42 | 45.31093 | -62.36807 | 21556 ft | 429 kts | 61° |
| 2026-04-29 06:42 | 45.32573 | -62.33116 | 21961 ft | 431 kts | 62° |
| 2026-04-29 06:42 | 45.34060 | -62.29397 | 22337 ft | 434 kts | 61° |
| 2026-04-29 06:42 | 45.35558 | -62.25650 | 22712 ft | 438 kts | 61° |
| 2026-04-29 06:43 | 45.37063 | -62.21877 | 23107 ft | 440 kts | 61° |
| 2026-04-29 06:43 | 45.38578 | -62.18072 | 23446 ft | 444 kts | 61° |
| 2026-04-29 06:43 | 45.40101 | -62.14242 | 23836 ft | 446 kts | 61° |
| 2026-04-29 06:43 | 45.41633 | -62.10384 | 24129 ft | 450 kts | 61° |
| 2026-04-29 06:44 | 45.43178 | -62.06487 | 24388 ft | 454 kts | 61° |
| 2026-04-29 06:44 | 45.44577 | -62.02462 | 24705 ft | 455 kts | 68° |
| 2026-04-29 06:44 | 45.45601 | -61.98190 | 25013 ft | 457 kts | 75° |
| 2026-04-29 06:44 | 45.46410 | -61.93805 | 25324 ft | 459 kts | 77° |
| 2026-04-29 06:45 | 45.47129 | -61.89362 | 25616 ft | 462 kts | 78° |
| 2026-04-29 06:45 | 45.47800 | -61.84879 | 25919 ft | 464 kts | 79° |
| 2026-04-29 06:45 | 45.48452 | -61.80365 | 26219 ft | 466 kts | 79° |
| 2026-04-29 06:45 | 45.49103 | -61.75830 | 26500 ft | 468 kts | 79° |
| 2026-04-29 06:46 | 45.49760 | -61.71274 | 26791 ft | 470 kts | 79° |
| 2026-04-29 06:46 | 45.50425 | -61.66695 | 27072 ft | 473 kts | 79° |
| 2026-04-29 06:46 | 45.51097 | -61.62100 | 27327 ft | 475 kts | 79° |
| 2026-04-29 06:46 | 45.51777 | -61.57462 | 27522 ft | 479 kts | 79° |
| 2026-04-29 06:47 | 45.52460 | -61.52800 | 27770 ft | 482 kts | 79° |
| 2026-04-29 06:47 | 45.53147 | -61.48109 | 28040 ft | 484 kts | 79° |
| 2026-04-29 06:47 | 45.53833 | -61.43403 | 28298 ft | 486 kts | 79° |
| 2026-04-29 06:47 | 45.54522 | -61.38666 | 28545 ft | 489 kts | 79° |
| 2026-04-29 06:48 | 45.55212 | -61.33902 | 28787 ft | 491 kts | 79° |
| 2026-04-29 06:48 | 45.55903 | -61.29118 | 29055 ft | 493 kts | 79° |
| 2026-04-29 06:48 | 45.56593 | -61.24321 | 29389 ft | 494 kts | 79° |